Terminal Aerodrome Forecast
Issued by NWS

Home | Current Version | Previous Version | Graphics & Text | Print | Product List | Glossary On
Versions: 1 2 3 4 5 6 7 8 9 10 11 12 13
000
FTUS43 KGRB 132323
TAFRHI
TAF
KRHI 132323Z 1400/1424 19003KT P6SM SCT045 BKN120
      TEMPO 1402/1406 BKN045
     FM141000 25008KT P6SM SKC=

USA.gov is the U.S. government's official web portal to all federal, state and local government web resources and services.